sensor_id;sensor_type;location;lat;lon;timestamp;P1;durP1;ratioP1;P2;durP2;ratioP2
3343;SDS011;1685;53.104;8.228;2023-07-28T00:02:04;8.43;;;6.17;;
3343;SDS011;1685;53.104;8.228;2023-07-28T00:04:31;13.97;;;7.03;;
3343;SDS011;1685;53.104;8.228;2023-07-28T00:06:58;13.50;;;7.30;;
3343;SDS011;1685;53.104;8.228;2023-07-28T00:09:26;10.03;;;6.07;;
3343;SDS011;1685;53.104;8.228;2023-07-28T00:11:53;7.70;;;5.87;;
3343;SDS011;1685;53.104;8.228;2023-07-28T00:14:20;10.10;;;6.10;;
3343;SDS011;1685;53.104;8.228;2023-07-28T00:16:47;10.30;;;6.90;;
3343;SDS011;1685;53.104;8.228;2023-07-28T00:19:16;9.33;;;6.77;;
3343;SDS011;1685;53.104;8.228;2023-07-28T00:21:44;14.20;;;7.20;;
3343;SDS011;1685;53.104;8.228;2023-07-28T00:24:11;12.27;;;7.73;;
3343;SDS011;1685;53.104;8.228;2023-07-28T00:26:38;15.93;;;7.97;;
3343;SDS011;1685;53.104;8.228;2023-07-28T00:29:05;11.40;;;7.33;;
3343;SDS011;1685;53.104;8.228;2023-07-28T00:31:32;15.80;;;9.43;;
3343;SDS011;1685;53.104;8.228;2023-07-28T00:33:59;19.00;;;9.53;;
3343;SDS011;1685;53.104;8.228;2023-07-28T00:36:28;19.30;;;9.30;;
3343;SDS011;1685;53.104;8.228;2023-07-28T00:38:56;14.70;;;8.60;;
3343;SDS011;1685;53.104;8.228;2023-07-28T00:41:23;17.67;;;10.37;;
3343;SDS011;1685;53.104;8.228;2023-07-28T00:43:50;19.50;;;9.57;;
3343;SDS011;1685;53.104;8.228;2023-07-28T00:46:17;16.67;;;10.67;;
3343;SDS011;1685;53.104;8.228;2023-07-28T00:48:45;24.00;;;12.20;;
3343;SDS011;1685;53.104;8.228;2023-07-28T00:51:12;21.97;;;11.67;;
3343;SDS011;1685;53.104;8.228;2023-07-28T00:53:41;30.10;;;12.80;;
3343;SDS011;1685;53.104;8.228;2023-07-28T00:56:09;27.53;;;13.47;;
3343;SDS011;1685;53.104;8.228;2023-07-28T00:58:37;28.97;;;13.40;;
3343;SDS011;1685;53.104;8.228;2023-07-28T01:01:04;32.50;;;13.57;;
3343;SDS011;1685;53.104;8.228;2023-07-28T01:03:31;37.33;;;15.67;;
3343;SDS011;1685;53.104;8.228;2023-07-28T01:06:03;26.23;;;12.93;;
3343;SDS011;1685;53.104;8.228;2023-07-28T01:08:38;29.70;;;13.53;;
3343;SDS011;1685;53.104;8.228;2023-07-28T01:11:08;30.17;;;13.80;;
3343;SDS011;1685;53.104;8.228;2023-07-28T01:13:35;28.60;;;13.57;;
3343;SDS011;1685;53.104;8.228;2023-07-28T01:16:03;25.80;;;11.73;;
3343;SDS011;1685;53.104;8.228;2023-07-28T01:18:30;31.47;;;12.57;;
3343;SDS011;1685;53.104;8.228;2023-07-28T01:20:57;27.30;;;14.33;;
3343;SDS011;1685;53.104;8.228;2023-07-28T01:23:31;33.57;;;13.67;;
3343;SDS011;1685;53.104;8.228;2023-07-28T01:26:08;30.73;;;15.10;;
3343;SDS011;1685;53.104;8.228;2023-07-28T01:28:38;35.57;;;14.10;;
3343;SDS011;1685;53.104;8.228;2023-07-28T01:31:07;31.00;;;14.57;;
3343;SDS011;1685;53.104;8.228;2023-07-28T01:33:35;37.73;;;13.67;;
3343;SDS011;1685;53.104;8.228;2023-07-28T01:36:02;22.63;;;10.33;;
3343;SDS011;1685;53.104;8.228;2023-07-28T01:38:29;16.53;;;8.77;;
3343;SDS011;1685;53.104;8.228;2023-07-28T01:40:57;18.93;;;8.60;;
3343;SDS011;1685;53.104;8.228;2023-07-28T01:43:24;14.70;;;7.47;;
3343;SDS011;1685;53.104;8.228;2023-07-28T01:45:52;11.97;;;6.80;;
3343;SDS011;1685;53.104;8.228;2023-07-28T01:48:19;10.37;;;6.27;;
3343;SDS011;1685;53.104;8.228;2023-07-28T01:50:46;15.77;;;7.60;;
3343;SDS011;1685;53.104;8.228;2023-07-28T01:53:14;12.30;;;7.43;;
3343;SDS011;1685;53.104;8.228;2023-07-28T01:55:41;14.33;;;7.10;;
3343;SDS011;1685;53.104;8.228;2023-07-28T01:58:08;18.13;;;9.80;;
3343;SDS011;1685;53.104;8.228;2023-07-28T02:00:35;18.30;;;8.97;;
3343;SDS011;1685;53.104;8.228;2023-07-28T02:03:04;14.37;;;8.83;;
3343;SDS011;1685;53.104;8.228;2023-07-28T02:05:32;16.83;;;9.70;;
3343;SDS011;1685;53.104;8.228;2023-07-28T02:07:59;22.27;;;11.20;;
3343;SDS011;1685;53.104;8.228;2023-07-28T02:10:26;22.33;;;11.37;;
3343;SDS011;1685;53.104;8.228;2023-07-28T02:12:54;18.60;;;9.97;;
3343;SDS011;1685;53.104;8.228;2023-07-28T02:15:21;18.50;;;9.50;;
3343;SDS011;1685;53.104;8.228;2023-07-28T02:17:48;26.93;;;10.93;;
3343;SDS011;1685;53.104;8.228;2023-07-28T02:20:17;15.50;;;10.27;;
3343;SDS011;1685;53.104;8.228;2023-07-28T02:22:44;23.80;;;11.40;;
3343;SDS011;1685;53.104;8.228;2023-07-28T02:25:11;21.57;;;9.53;;
3343;SDS011;1685;53.104;8.228;2023-07-28T02:27:38;21.33;;;10.63;;
3343;SDS011;1685;53.104;8.228;2023-07-28T02:30:06;25.77;;;11.90;;
3343;SDS011;1685;53.104;8.228;2023-07-28T02:32:33;29.03;;;12.60;;
3343;SDS011;1685;53.104;8.228;2023-07-28T02:35:00;22.13;;;11.57;;
3343;SDS011;1685;53.104;8.228;2023-07-28T02:37:29;24.13;;;11.80;;
3343;SDS011;1685;53.104;8.228;2023-07-28T02:39:56;29.43;;;12.90;;
3343;SDS011;1685;53.104;8.228;2023-07-28T02:42:23;26.17;;;13.47;;
3343;SDS011;1685;53.104;8.228;2023-07-28T02:44:51;40.43;;;13.60;;
3343;SDS011;1685;53.104;8.228;2023-07-28T02:47:18;31.17;;;13.90;;
3343;SDS011;1685;53.104;8.228;2023-07-28T02:49:45;23.80;;;13.20;;
3343;SDS011;1685;53.104;8.228;2023-07-28T02:52:12;25.20;;;12.47;;
3343;SDS011;1685;53.104;8.228;2023-07-28T02:54:41;22.80;;;13.67;;
3343;SDS011;1685;53.104;8.228;2023-07-28T02:57:08;26.67;;;13.07;;
3343;SDS011;1685;53.104;8.228;2023-07-28T02:59:35;29.40;;;14.33;;
3343;SDS011;1685;53.104;8.228;2023-07-28T03:02:02;23.57;;;13.47;;
3343;SDS011;1685;53.104;8.228;2023-07-28T03:04:31;31.23;;;14.47;;
3343;SDS011;1685;53.104;8.228;2023-07-28T03:06:59;25.70;;;13.63;;
3343;SDS011;1685;53.104;8.228;2023-07-28T03:09:26;30.63;;;15.10;;
3343;SDS011;1685;53.104;8.228;2023-07-28T03:11:54;26.37;;;13.77;;
3343;SDS011;1685;53.104;8.228;2023-07-28T03:14:21;30.27;;;14.63;;
3343;SDS011;1685;53.104;8.228;2023-07-28T03:16:49;29.80;;;15.27;;
3343;SDS011;1685;53.104;8.228;2023-07-28T03:19:16;29.57;;;15.37;;
3343;SDS011;1685;53.104;8.228;2023-07-28T03:21:43;29.77;;;15.70;;
3343;SDS011;1685;53.104;8.228;2023-07-28T03:24:10;29.13;;;13.87;;
3343;SDS011;1685;53.104;8.228;2023-07-28T03:26:37;33.97;;;15.87;;
3343;SDS011;1685;53.104;8.228;2023-07-28T03:29:06;27.77;;;14.37;;
3343;SDS011;1685;53.104;8.228;2023-07-28T03:31:32;35.77;;;17.20;;
3343;SDS011;1685;53.104;8.228;2023-07-28T03:34:00;32.47;;;16.57;;
3343;SDS011;1685;53.104;8.228;2023-07-28T03:36:27;35.13;;;16.57;;
3343;SDS011;1685;53.104;8.228;2023-07-28T03:38:55;34.60;;;17.40;;
3343;SDS011;1685;53.104;8.228;2023-07-28T03:41:22;36.40;;;16.63;;
3343;SDS011;1685;53.104;8.228;2023-07-28T03:43:49;36.60;;;16.83;;
3343;SDS011;1685;53.104;8.228;2023-07-28T03:46:18;48.33;;;17.57;;
3343;SDS011;1685;53.104;8.228;2023-07-28T03:48:45;37.23;;;17.37;;
3343;SDS011;1685;53.104;8.228;2023-07-28T03:51:12;47.73;;;18.33;;
3343;SDS011;1685;53.104;8.228;2023-07-28T03:53:39;49.23;;;17.57;;
3343;SDS011;1685;53.104;8.228;2023-07-28T03:56:06;39.50;;;16.77;;
3343;SDS011;1685;53.104;8.228;2023-07-28T03:58:33;53.13;;;18.80;;
3343;SDS011;1685;53.104;8.228;2023-07-28T04:01:01;48.83;;;19.20;;
3343;SDS011;1685;53.104;8.228;2023-07-28T04:03:30;36.40;;;17.93;;
3343;SDS011;1685;53.104;8.228;2023-07-28T04:05:57;39.37;;;17.87;;
3343;SDS011;1685;53.104;8.228;2023-07-28T04:08:24;39.90;;;18.20;;
3343;SDS011;1685;53.104;8.228;2023-07-28T04:10:51;44.60;;;19.60;;
3343;SDS011;1685;53.104;8.228;2023-07-28T04:13:18;45.83;;;20.57;;
3343;SDS011;1685;53.104;8.228;2023-07-28T04:15:45;50.37;;;19.93;;
3343;SDS011;1685;53.104;8.228;2023-07-28T04:18:12;43.30;;;18.80;;
3343;SDS011;1685;53.104;8.228;2023-07-28T04:20:41;42.60;;;17.17;;
3343;SDS011;1685;53.104;8.228;2023-07-28T04:23:08;43.53;;;17.63;;
3343;SDS011;1685;53.104;8.228;2023-07-28T04:25:35;43.13;;;18.67;;
3343;SDS011;1685;53.104;8.228;2023-07-28T04:28:02;49.33;;;16.17;;
3343;SDS011;1685;53.104;8.228;2023-07-28T04:30:29;36.43;;;16.93;;
3343;SDS011;1685;53.104;8.228;2023-07-28T04:32:57;41.47;;;16.43;;
3343;SDS011;1685;53.104;8.228;2023-07-28T04:35:24;35.83;;;14.77;;
3343;SDS011;1685;53.104;8.228;2023-07-28T04:37:52;39.17;;;16.67;;
3343;SDS011;1685;53.104;8.228;2023-07-28T04:40:19;40.47;;;16.87;;
3343;SDS011;1685;53.104;8.228;2023-07-28T04:42:47;48.03;;;17.93;;
3343;SDS011;1685;53.104;8.228;2023-07-28T04:45:17;39.37;;;16.23;;
3343;SDS011;1685;53.104;8.228;2023-07-28T04:47:45;43.47;;;17.10;;
3343;SDS011;1685;53.104;8.228;2023-07-28T04:50:12;46.17;;;17.97;;
3343;SDS011;1685;53.104;8.228;2023-07-28T04:52:39;36.77;;;15.50;;
3343;SDS011;1685;53.104;8.228;2023-07-28T04:55:08;42.53;;;16.10;;
3343;SDS011;1685;53.104;8.228;2023-07-28T04:57:35;38.17;;;17.83;;
3343;SDS011;1685;53.104;8.228;2023-07-28T05:00:02;44.13;;;18.33;;
3343;SDS011;1685;53.104;8.228;2023-07-28T05:02:30;48.80;;;18.03;;
3343;SDS011;1685;53.104;8.228;2023-07-28T05:04:57;47.57;;;19.30;;
3343;SDS011;1685;53.104;8.228;2023-07-28T05:07:24;48.43;;;18.83;;
3343;SDS011;1685;53.104;8.228;2023-07-28T05:09:51;41.20;;;17.63;;
3343;SDS011;1685;53.104;8.228;2023-07-28T05:12:20;44.53;;;17.70;;
3343;SDS011;1685;53.104;8.228;2023-07-28T05:14:47;45.20;;;17.93;;
3343;SDS011;1685;53.104;8.228;2023-07-28T05:17:14;42.27;;;17.47;;
3343;SDS011;1685;53.104;8.228;2023-07-28T05:19:41;47.33;;;19.10;;
3343;SDS011;1685;53.104;8.228;2023-07-28T05:22:08;51.80;;;19.13;;
3343;SDS011;1685;53.104;8.228;2023-07-28T05:24:35;44.73;;;18.77;;
3343;SDS011;1685;53.104;8.228;2023-07-28T05:27:02;46.77;;;19.27;;
3343;SDS011;1685;53.104;8.228;2023-07-28T05:29:31;55.50;;;20.13;;
3343;SDS011;1685;53.104;8.228;2023-07-28T05:31:58;43.87;;;19.00;;
3343;SDS011;1685;53.104;8.228;2023-07-28T05:34:25;53.20;;;20.40;;
3343;SDS011;1685;53.104;8.228;2023-07-28T05:36:53;40.43;;;18.60;;
3343;SDS011;1685;53.104;8.228;2023-07-28T05:39:20;50.60;;;19.23;;
3343;SDS011;1685;53.104;8.228;2023-07-28T05:41:47;51.17;;;20.67;;
3343;SDS011;1685;53.104;8.228;2023-07-28T05:44:14;63.37;;;22.60;;
3343;SDS011;1685;53.104;8.228;2023-07-28T05:46:43;55.03;;;21.40;;
3343;SDS011;1685;53.104;8.228;2023-07-28T05:49:10;46.07;;;19.80;;
3343;SDS011;1685;53.104;8.228;2023-07-28T05:51:37;48.27;;;20.20;;
3343;SDS011;1685;53.104;8.228;2023-07-28T05:54:05;54.10;;;22.93;;
3343;SDS011;1685;53.104;8.228;2023-07-28T05:56:32;50.83;;;21.13;;
3343;SDS011;1685;53.104;8.228;2023-07-28T05:58:59;49.27;;;20.17;;
3343;SDS011;1685;53.104;8.228;2023-07-28T06:01:26;51.47;;;22.30;;
3343;SDS011;1685;53.104;8.228;2023-07-28T06:03:55;51.97;;;22.27;;
3343;SDS011;1685;53.104;8.228;2023-07-28T06:06:24;54.83;;;22.87;;
3343;SDS011;1685;53.104;8.228;2023-07-28T06:08:51;55.30;;;21.57;;
3343;SDS011;1685;53.104;8.228;2023-07-28T06:11:18;49.10;;;21.53;;
3343;SDS011;1685;53.104;8.228;2023-07-28T06:13:45;61.70;;;24.10;;
3343;SDS011;1685;53.104;8.228;2023-07-28T06:16:13;63.07;;;22.63;;
3343;SDS011;1685;53.104;8.228;2023-07-28T06:18:40;50.13;;;23.37;;
3343;SDS011;1685;53.104;8.228;2023-07-28T06:21:08;55.67;;;23.37;;
3343;SDS011;1685;53.104;8.228;2023-07-28T06:23:35;60.60;;;24.23;;
3343;SDS011;1685;53.104;8.228;2023-07-28T06:26:02;61.40;;;23.07;;
3343;SDS011;1685;53.104;8.228;2023-07-28T06:28:30;57.93;;;23.43;;
3343;SDS011;1685;53.104;8.228;2023-07-28T06:30:57;54.23;;;22.97;;
3343;SDS011;1685;53.104;8.228;2023-07-28T06:33:24;50.80;;;23.10;;
3343;SDS011;1685;53.104;8.228;2023-07-28T06:35:51;49.30;;;22.57;;
3343;SDS011;1685;53.104;8.228;2023-07-28T06:38:20;51.93;;;23.23;;
3343;SDS011;1685;53.104;8.228;2023-07-28T06:40:47;59.60;;;22.57;;
3343;SDS011;1685;53.104;8.228;2023-07-28T06:43:14;48.93;;;23.43;;
3343;SDS011;1685;53.104;8.228;2023-07-28T06:45:43;58.67;;;23.87;;
3343;SDS011;1685;53.104;8.228;2023-07-28T06:48:10;45.93;;;23.17;;
3343;SDS011;1685;53.104;8.228;2023-07-28T06:50:37;50.83;;;25.60;;
3343;SDS011;1685;53.104;8.228;2023-07-28T06:53:05;43.20;;;23.10;;
3343;SDS011;1685;53.104;8.228;2023-07-28T06:55:33;53.50;;;25.27;;
3343;SDS011;1685;53.104;8.228;2023-07-28T06:58:00;46.53;;;23.97;;
3343;SDS011;1685;53.104;8.228;2023-07-28T07:00:27;47.43;;;22.70;;
3343;SDS011;1685;53.104;8.228;2023-07-28T07:02:54;53.33;;;24.93;;
3343;SDS011;1685;53.104;8.228;2023-07-28T07:05:22;44.03;;;23.87;;
3343;SDS011;1685;53.104;8.228;2023-07-28T07:07:49;49.57;;;24.83;;
3343;SDS011;1685;53.104;8.228;2023-07-28T07:10:17;50.63;;;23.07;;
3343;SDS011;1685;53.104;8.228;2023-07-28T07:12:47;49.47;;;22.20;;
3343;SDS011;1685;53.104;8.228;2023-07-28T07:15:14;49.30;;;22.50;;
3343;SDS011;1685;53.104;8.228;2023-07-28T07:17:41;47.70;;;23.37;;
3343;SDS011;1685;53.104;8.228;2023-07-28T07:20:08;48.63;;;24.77;;
3343;SDS011;1685;53.104;8.228;2023-07-28T07:22:36;42.27;;;22.20;;
3343;SDS011;1685;53.104;8.228;2023-07-28T07:25:04;55.57;;;23.33;;
3343;SDS011;1685;53.104;8.228;2023-07-28T07:27:32;42.43;;;22.43;;
3343;SDS011;1685;53.104;8.228;2023-07-28T07:30:00;39.97;;;24.70;;
3343;SDS011;1685;53.104;8.228;2023-07-28T07:32:29;42.23;;;21.93;;
3343;SDS011;1685;53.104;8.228;2023-07-28T07:34:56;43.40;;;22.00;;
3343;SDS011;1685;53.104;8.228;2023-07-28T07:37:23;44.70;;;22.90;;
3343;SDS011;1685;53.104;8.228;2023-07-28T07:39:50;42.67;;;22.83;;
3343;SDS011;1685;53.104;8.228;2023-07-28T07:42:17;42.23;;;21.80;;
3343;SDS011;1685;53.104;8.228;2023-07-28T07:44:45;41.77;;;23.30;;
3343;SDS011;1685;53.104;8.228;2023-07-28T07:47:13;38.67;;;23.17;;
3343;SDS011;1685;53.104;8.228;2023-07-28T07:49:41;58.43;;;24.43;;
3343;SDS011;1685;53.104;8.228;2023-07-28T07:52:08;46.77;;;23.40;;
3343;SDS011;1685;53.104;8.228;2023-07-28T07:54:36;34.27;;;21.17;;
3343;SDS011;1685;53.104;8.228;2023-07-28T07:57:03;39.00;;;21.13;;
3343;SDS011;1685;53.104;8.228;2023-07-28T07:59:30;42.63;;;21.27;;
3343;SDS011;1685;53.104;8.228;2023-07-28T08:01:58;43.03;;;21.80;;
3343;SDS011;1685;53.104;8.228;2023-07-28T08:04:29;44.23;;;22.43;;
3343;SDS011;1685;53.104;8.228;2023-07-28T08:06:56;37.50;;;20.83;;
3343;SDS011;1685;53.104;8.228;2023-07-28T08:09:23;42.83;;;21.90;;
3343;SDS011;1685;53.104;8.228;2023-07-28T08:11:50;36.20;;;22.47;;
3343;SDS011;1685;53.104;8.228;2023-07-28T08:14:18;35.73;;;22.13;;
3343;SDS011;1685;53.104;8.228;2023-07-28T08:16:45;37.43;;;20.30;;
3343;SDS011;1685;53.104;8.228;2023-07-28T08:19:12;37.20;;;19.73;;
3343;SDS011;1685;53.104;8.228;2023-07-28T08:21:41;33.60;;;19.07;;
3343;SDS011;1685;53.104;8.228;2023-07-28T08:24:08;35.27;;;20.47;;
3343;SDS011;1685;53.104;8.228;2023-07-28T08:26:35;34.10;;;20.60;;
3343;SDS011;1685;53.104;8.228;2023-07-28T08:29:02;31.63;;;19.43;;
3343;SDS011;1685;53.104;8.228;2023-07-28T08:31:29;40.40;;;22.07;;
3343;SDS011;1685;53.104;8.228;2023-07-28T08:33:57;42.13;;;21.27;;
3343;SDS011;1685;53.104;8.228;2023-07-28T08:36:24;45.40;;;20.30;;
3343;SDS011;1685;53.104;8.228;2023-07-28T08:38:53;36.27;;;20.17;;
3343;SDS011;1685;53.104;8.228;2023-07-28T08:41:19;40.30;;;19.63;;
3343;SDS011;1685;53.104;8.228;2023-07-28T08:43:47;31.67;;;18.10;;
3343;SDS011;1685;53.104;8.228;2023-07-28T08:46:16;24.80;;;16.83;;
3343;SDS011;1685;53.104;8.228;2023-07-28T08:48:43;29.47;;;18.53;;
3343;SDS011;1685;53.104;8.228;2023-07-28T08:51:12;24.37;;;16.43;;
3343;SDS011;1685;53.104;8.228;2023-07-28T08:53:39;35.07;;;17.67;;
3343;SDS011;1685;53.104;8.228;2023-07-28T08:56:08;27.67;;;17.10;;
3343;SDS011;1685;53.104;8.228;2023-07-28T08:58:35;28.50;;;16.33;;
3343;SDS011;1685;53.104;8.228;2023-07-28T09:01:02;23.40;;;16.07;;
3343;SDS011;1685;53.104;8.228;2023-07-28T09:03:30;30.93;;;18.70;;
3343;SDS011;1685;53.104;8.228;2023-07-28T09:05:59;30.77;;;16.63;;
3343;SDS011;1685;53.104;8.228;2023-07-28T09:08:26;19.60;;;14.50;;
3343;SDS011;1685;53.104;8.228;2023-07-28T09:10:54;22.57;;;13.10;;
3343;SDS011;1685;53.104;8.228;2023-07-28T09:13:22;18.80;;;12.00;;
3343;SDS011;1685;53.104;8.228;2023-07-28T09:15:49;16.97;;;12.23;;
3343;SDS011;1685;53.104;8.228;2023-07-28T09:18:17;18.33;;;11.73;;
3343;SDS011;1685;53.104;8.228;2023-07-28T09:20:44;13.63;;;11.27;;
3343;SDS011;1685;53.104;8.228;2023-07-28T09:23:12;13.80;;;11.10;;
3343;SDS011;1685;53.104;8.228;2023-07-28T09:25:40;11.00;;;9.13;;
3343;SDS011;1685;53.104;8.228;2023-07-28T09:28:07;20.83;;;10.07;;
3343;SDS011;1685;53.104;8.228;2023-07-28T09:30:46;12.00;;;9.00;;
3343;SDS011;1685;53.104;8.228;2023-07-28T09:33:14;15.13;;;9.17;;
3343;SDS011;1685;53.104;8.228;2023-07-28T09:35:55;11.57;;;8.60;;
3343;SDS011;1685;53.104;8.228;2023-07-28T09:38:22;9.20;;;7.97;;
3343;SDS011;1685;53.104;8.228;2023-07-28T09:40:54;13.07;;;7.73;;
3343;SDS011;1685;53.104;8.228;2023-07-28T09:43:23;15.13;;;8.47;;
3343;SDS011;1685;53.104;8.228;2023-07-28T09:45:52;10.27;;;7.30;;
3343;SDS011;1685;53.104;8.228;2023-07-28T09:48:19;10.90;;;6.37;;
3343;SDS011;1685;53.104;8.228;2023-07-28T09:50:47;7.33;;;6.30;;
3343;SDS011;1685;53.104;8.228;2023-07-28T09:53:14;10.03;;;6.10;;
3343;SDS011;1685;53.104;8.228;2023-07-28T09:55:43;9.90;;;6.60;;
3343;SDS011;1685;53.104;8.228;2023-07-28T09:58:11;9.20;;;5.43;;
3343;SDS011;1685;53.104;8.228;2023-07-28T10:00:42;6.77;;;6.00;;
3343;SDS011;1685;53.104;8.228;2023-07-28T10:03:10;6.10;;;4.70;;
3343;SDS011;1685;53.104;8.228;2023-07-28T10:05:37;22.83;;;5.03;;
3343;SDS011;1685;53.104;8.228;2023-07-28T10:08:05;5.93;;;4.07;;
3343;SDS011;1685;53.104;8.228;2023-07-28T10:10:32;6.00;;;4.70;;
3343;SDS011;1685;53.104;8.228;2023-07-28T10:13:00;5.37;;;3.80;;
3343;SDS011;1685;53.104;8.228;2023-07-28T10:15:28;8.53;;;4.67;;
3343;SDS011;1685;53.104;8.228;2023-07-28T10:17:57;5.63;;;4.20;;
3343;SDS011;1685;53.104;8.228;2023-07-28T10:20:29;3.50;;;3.20;;
3343;SDS011;1685;53.104;8.228;2023-07-28T10:23:04;4.43;;;3.57;;
3343;SDS011;1685;53.104;8.228;2023-07-28T10:25:31;4.73;;;4.10;;
3343;SDS011;1685;53.104;8.228;2023-07-28T10:28:03;5.73;;;4.30;;
3343;SDS011;1685;53.104;8.228;2023-07-28T10:30:34;6.33;;;5.47;;
3343;SDS011;1685;53.104;8.228;2023-07-28T10:33:05;5.87;;;5.40;;
3343;SDS011;1685;53.104;8.228;2023-07-28T10:35:35;7.90;;;5.13;;
3343;SDS011;1685;53.104;8.228;2023-07-28T10:41:05;6.77;;;5.30;;
3343;SDS011;1685;53.104;8.228;2023-07-28T10:43:37;6.30;;;4.83;;
3343;SDS011;1685;53.104;8.228;2023-07-28T10:46:05;5.40;;;4.83;;
3343;SDS011;1685;53.104;8.228;2023-07-28T10:48:34;5.53;;;5.03;;
3343;SDS011;1685;53.104;8.228;2023-07-28T10:51:04;6.03;;;5.10;;
3343;SDS011;1685;53.104;8.228;2023-07-28T10:53:31;7.73;;;4.97;;
3343;SDS011;1685;53.104;8.228;2023-07-28T10:55:58;8.10;;;5.20;;
3343;SDS011;1685;53.104;8.228;2023-07-28T10:58:26;8.33;;;5.60;;
3343;SDS011;1685;53.104;8.228;2023-07-28T11:00:53;6.60;;;5.03;;
3343;SDS011;1685;53.104;8.228;2023-07-28T11:03:21;5.27;;;4.77;;
3343;SDS011;1685;53.104;8.228;2023-07-28T11:05:49;6.00;;;5.40;;
3343;SDS011;1685;53.104;8.228;2023-07-28T11:08:17;5.90;;;5.50;;
3343;SDS011;1685;53.104;8.228;2023-07-28T11:10:44;7.13;;;5.13;;
3343;SDS011;1685;53.104;8.228;2023-07-28T11:13:12;5.60;;;5.10;;
3343;SDS011;1685;53.104;8.228;2023-07-28T11:15:40;5.10;;;4.60;;
3343;SDS011;1685;53.104;8.228;2023-07-28T11:18:07;4.47;;;4.10;;
3343;SDS011;1685;53.104;8.228;2023-07-28T11:20:35;4.90;;;3.83;;
3343;SDS011;1685;53.104;8.228;2023-07-28T11:23:02;4.93;;;4.27;;
3343;SDS011;1685;53.104;8.228;2023-07-28T11:25:34;4.30;;;3.90;;
3343;SDS011;1685;53.104;8.228;2023-07-28T11:28:02;3.77;;;3.43;;
3343;SDS011;1685;53.104;8.228;2023-07-28T11:30:30;5.90;;;3.33;;
3343;SDS011;1685;53.104;8.228;2023-07-28T11:32:58;3.10;;;2.90;;
3343;SDS011;1685;53.104;8.228;2023-07-28T11:35:25;7.77;;;3.40;;
3343;SDS011;1685;53.104;8.228;2023-07-28T11:37:53;2.50;;;2.30;;
3343;SDS011;1685;53.104;8.228;2023-07-28T11:40:20;2.87;;;2.70;;
3343;SDS011;1685;53.104;8.228;2023-07-28T11:42:50;2.60;;;2.50;;
3343;SDS011;1685;53.104;8.228;2023-07-28T11:45:18;2.17;;;2.07;;
3343;SDS011;1685;53.104;8.228;2023-07-28T11:47:51;3.50;;;2.10;;
3343;SDS011;1685;53.104;8.228;2023-07-28T11:50:22;4.10;;;2.10;;
3343;SDS011;1685;53.104;8.228;2023-07-28T11:52:49;2.87;;;2.67;;
3343;SDS011;1685;53.104;8.228;2023-07-28T11:55:16;5.90;;;2.20;;
3343;SDS011;1685;53.104;8.228;2023-07-28T11:57:45;2.83;;;2.47;;
3343;SDS011;1685;53.104;8.228;2023-07-28T12:00:14;2.00;;;1.90;;
3343;SDS011;1685;53.104;8.228;2023-07-28T12:02:44;3.00;;;2.80;;
3343;SDS011;1685;53.104;8.228;2023-07-28T12:05:12;3.93;;;2.50;;
3343;SDS011;1685;53.104;8.228;2023-07-28T12:07:40;2.90;;;2.30;;
3343;SDS011;1685;53.104;8.228;2023-07-28T12:10:07;2.50;;;2.30;;
3343;SDS011;1685;53.104;8.228;2023-07-28T12:12:41;2.30;;;2.10;;
3343;SDS011;1685;53.104;8.228;2023-07-28T12:15:20;3.57;;;2.77;;
3343;SDS011;1685;53.104;8.228;2023-07-28T12:18:10;2.70;;;2.50;;
3343;SDS011;1685;53.104;8.228;2023-07-28T12:20:39;12.47;;;2.93;;
3343;SDS011;1685;53.104;8.228;2023-07-28T12:23:06;5.57;;;3.10;;
3343;SDS011;1685;53.104;8.228;2023-07-28T12:25:35;2.20;;;2.10;;
3343;SDS011;1685;53.104;8.228;2023-07-28T12:28:03;2.60;;;2.50;;
3343;SDS011;1685;53.104;8.228;2023-07-28T12:30:32;2.10;;;2.00;;
3343;SDS011;1685;53.104;8.228;2023-07-28T12:32:59;8.17;;;2.70;;
3343;SDS011;1685;53.104;8.228;2023-07-28T12:35:26;2.07;;;1.97;;
3343;SDS011;1685;53.104;8.228;2023-07-28T12:37:56;4.83;;;2.87;;
3343;SDS011;1685;53.104;8.228;2023-07-28T12:40:25;2.60;;;2.40;;
3343;SDS011;1685;53.104;8.228;2023-07-28T12:42:53;2.13;;;2.03;;
3343;SDS011;1685;53.104;8.228;2023-07-28T12:45:20;3.07;;;1.90;;
3343;SDS011;1685;53.104;8.228;2023-07-28T12:47:49;2.67;;;2.40;;
3343;SDS011;1685;53.104;8.228;2023-07-28T12:50:16;2.27;;;2.17;;
3343;SDS011;1685;53.104;8.228;2023-07-28T12:52:43;2.10;;;2.00;;
3343;SDS011;1685;53.104;8.228;2023-07-28T12:55:10;2.00;;;1.90;;
3343;SDS011;1685;53.104;8.228;2023-07-28T12:57:37;2.50;;;2.30;;
3343;SDS011;1685;53.104;8.228;2023-07-28T13:00:05;3.17;;;2.27;;
3343;SDS011;1685;53.104;8.228;2023-07-28T13:02:37;2.93;;;2.20;;
3343;SDS011;1685;53.104;8.228;2023-07-28T13:05:06;2.63;;;2.40;;
3343;SDS011;1685;53.104;8.228;2023-07-28T13:07:35;3.17;;;2.33;;
3343;SDS011;1685;53.104;8.228;2023-07-28T13:10:02;2.10;;;1.80;;
3343;SDS011;1685;53.104;8.228;2023-07-28T13:12:29;2.37;;;2.17;;
3343;SDS011;1685;53.104;8.228;2023-07-28T13:14:56;2.40;;;2.13;;
3343;SDS011;1685;53.104;8.228;2023-07-28T13:17:24;2.27;;;2.17;;
3343;SDS011;1685;53.104;8.228;2023-07-28T13:19:51;2.97;;;2.10;;
3343;SDS011;1685;53.104;8.228;2023-07-28T13:22:19;2.63;;;2.50;;
3343;SDS011;1685;53.104;8.228;2023-07-28T13:24:46;6.47;;;2.13;;
3343;SDS011;1685;53.104;8.228;2023-07-28T13:27:13;2.10;;;1.90;;
3343;SDS011;1685;53.104;8.228;2023-07-28T13:29:40;5.07;;;2.10;;
3343;SDS011;1685;53.104;8.228;2023-07-28T13:32:15;2.10;;;1.90;;
3343;SDS011;1685;53.104;8.228;2023-07-28T13:34:42;1.97;;;1.83;;
3343;SDS011;1685;53.104;8.228;2023-07-28T13:37:10;4.10;;;2.10;;
3343;SDS011;1685;53.104;8.228;2023-07-28T13:39:38;3.63;;;2.63;;
3343;SDS011;1685;53.104;8.228;2023-07-28T13:42:05;4.33;;;2.00;;
3343;SDS011;1685;53.104;8.228;2023-07-28T13:44:32;1.90;;;1.80;;
3343;SDS011;1685;53.104;8.228;2023-07-28T13:46:59;7.23;;;2.10;;
3343;SDS011;1685;53.104;8.228;2023-07-28T13:49:26;2.00;;;1.90;;
3343;SDS011;1685;53.104;8.228;2023-07-28T13:51:53;3.90;;;2.23;;
3343;SDS011;1685;53.104;8.228;2023-07-28T13:54:21;3.67;;;2.23;;
3343;SDS011;1685;53.104;8.228;2023-07-28T13:56:49;5.33;;;2.43;;
3343;SDS011;1685;53.104;8.228;2023-07-28T13:59:16;2.50;;;2.30;;
3343;SDS011;1685;53.104;8.228;2023-07-28T14:01:43;4.93;;;2.30;;
3343;SDS011;1685;53.104;8.228;2023-07-28T14:04:10;2.60;;;2.40;;
3343;SDS011;1685;53.104;8.228;2023-07-28T14:06:39;2.33;;;2.20;;
3343;SDS011;1685;53.104;8.228;2023-07-28T14:09:06;3.60;;;2.53;;
3343;SDS011;1685;53.104;8.228;2023-07-28T14:11:34;2.43;;;2.30;;
3343;SDS011;1685;53.104;8.228;2023-07-28T14:14:03;2.30;;;2.07;;
3343;SDS011;1685;53.104;8.228;2023-07-28T14:16:29;2.33;;;2.23;;
3343;SDS011;1685;53.104;8.228;2023-07-28T14:18:57;2.47;;;2.20;;
3343;SDS011;1685;53.104;8.228;2023-07-28T14:21:24;1.93;;;1.83;;
3343;SDS011;1685;53.104;8.228;2023-07-28T14:23:51;3.03;;;2.27;;
3343;SDS011;1685;53.104;8.228;2023-07-28T14:26:18;3.10;;;2.53;;
3343;SDS011;1685;53.104;8.228;2023-07-28T14:28:45;2.40;;;2.30;;
3343;SDS011;1685;53.104;8.228;2023-07-28T14:31:14;2.80;;;2.20;;
3343;SDS011;1685;53.104;8.228;2023-07-28T14:33:41;2.87;;;2.60;;
3343;SDS011;1685;53.104;8.228;2023-07-28T14:36:08;6.03;;;4.10;;
3343;SDS011;1685;53.104;8.228;2023-07-28T14:38:35;8.93;;;4.57;;
3343;SDS011;1685;53.104;8.228;2023-07-28T14:41:02;10.90;;;4.80;;
3343;SDS011;1685;53.104;8.228;2023-07-28T14:43:29;7.00;;;5.20;;
3343;SDS011;1685;53.104;8.228;2023-07-28T14:45:56;5.40;;;3.67;;
3343;SDS011;1685;53.104;8.228;2023-07-28T14:48:25;5.53;;;4.80;;
3343;SDS011;1685;53.104;8.228;2023-07-28T14:50:52;6.20;;;5.13;;
3343;SDS011;1685;53.104;8.228;2023-07-28T14:53:28;9.30;;;5.60;;
3343;SDS011;1685;53.104;8.228;2023-07-28T14:55:56;6.40;;;5.80;;
3343;SDS011;1685;53.104;8.228;2023-07-28T14:58:24;8.20;;;7.00;;
3343;SDS011;1685;53.104;8.228;2023-07-28T15:00:51;6.60;;;6.00;;
3343;SDS011;1685;53.104;8.228;2023-07-28T15:03:18;14.23;;;6.47;;
3343;SDS011;1685;53.104;8.228;2023-07-28T15:05:46;8.73;;;6.47;;